Time;durP1;ratioP1;P1;durP2;ratioP2;P2;SDS_P1;SDS_P2;PMS_P1;PMS_P2;Temp;Humidity;BMP_temperature;BMP_pressure;BME280_temperature;BME280_humidity;BME280_pressure;Samples;Min_cycle;Max_cycle;Signal;HPM_P1;HPM_P2
2023/05/29 00:01:18;;;;;;;8.33;5.57;;;;;;;;;;5078883;28;20233;-66
2023/05/29 00:03:46;;;;;;;5.77;5.07;;;;;;;;;;5079064;28;20206;-66
2023/05/29 00:06:14;;;;;;;6.17;5.57;;;;;;;;;;5079235;28;20222;-66
2023/05/29 00:08:43;;;;;;;7.60;5.67;;;;;;;;;;5078453;28;20316;-66
2023/05/29 00:11:12;;;;;;;11.37;5.87;;;;;;;;;;5078874;28;20292;-66
2023/05/29 00:13:41;;;;;;;6.40;4.77;;;;;;;;;;5078835;28;20206;-66
2023/05/29 00:16:09;;;;;;;7.60;4.97;;;;;;;;;;5078720;28;20768;-66
2023/05/29 00:18:45;;;;;;;11.57;5.73;;;;;;;;;;5078686;28;20220;-66
2023/05/29 00:21:14;;;;;;;6.40;5.37;;;;;;;;;;5078794;28;20205;-66
2023/05/29 00:23:42;;;;;;;8.50;5.93;;;;;;;;;;5078504;28;20214;-67
2023/05/29 00:26:16;;;;;;;6.83;5.33;;;;;;;;;;5078482;28;20304;-66
2023/05/29 00:28:44;;;;;;;9.93;5.37;;;;;;;;;;5078490;28;20228;-66
2023/05/29 00:31:13;;;;;;;8.67;5.43;;;;;;;;;;5078629;28;20296;-66
2023/05/29 00:33:41;;;;;;;9.83;5.50;;;;;;;;;;5078456;28;20243;-66
2023/05/29 00:36:10;;;;;;;8.70;5.33;;;;;;;;;;5078412;28;20589;-66
2023/05/29 00:38:38;;;;;;;7.13;5.33;;;;;;;;;;5077018;28;20210;-67
2023/05/29 00:41:06;;;;;;;7.13;4.90;;;;;;;;;;5076487;28;20236;-66
2023/05/29 00:43:36;;;;;;;8.83;5.40;;;;;;;;;;5078111;28;20209;-66
2023/05/29 00:46:04;;;;;;;8.53;5.50;;;;;;;;;;5078270;28;20229;-66
2023/05/29 00:48:32;;;;;;;9.73;5.60;;;;;;;;;;5078362;28;20236;-66
2023/05/29 00:51:01;;;;;;;9.27;6.03;;;;;;;;;;5073774;28;20280;-66
2023/05/29 00:53:29;;;;;;;9.07;5.53;;;;;;;;;;5077901;28;20236;-66
2023/05/29 00:55:57;;;;;;;6.83;5.87;;;;;;;;;;5077933;28;20256;-65
2023/05/29 00:58:25;;;;;;;5.90;4.87;;;;;;;;;;5078241;28;20282;-66
2023/05/29 01:00:55;;;;;;;9.40;5.73;;;;;;;;;;5077596;28;20311;-65
2023/05/29 01:03:24;;;;;;;8.07;5.40;;;;;;;;;;5077888;28;20634;-65
2023/05/29 01:05:52;;;;;;;10.60;6.43;;;;;;;;;;5077425;28;20224;-65
2023/05/29 01:08:20;;;;;;;10.27;6.20;;;;;;;;;;5077427;28;20569;-65
2023/05/29 01:10:50;;;;;;;8.50;6.23;;;;;;;;;;5078036;28;20229;-66
2023/05/29 01:13:19;;;;;;;9.20;6.07;;;;;;;;;;5078205;28;20211;-66
2023/05/29 01:15:52;;;;;;;9.27;6.40;;;;;;;;;;5077754;28;20229;-66
2023/05/29 01:18:27;;;;;;;8.27;6.30;;;;;;;;;;5077743;28;20564;-66
2023/05/29 01:20:59;;;;;;;7.70;5.93;;;;;;;;;;5078116;28;20226;-66
2023/05/29 01:23:38;;;;;;;9.47;6.17;;;;;;;;;;5077596;28;20272;-66
2023/05/29 01:26:12;;;;;;;8.73;6.90;;;;;;;;;;5077909;28;20235;-66
2023/05/29 01:28:45;;;;;;;7.57;5.93;;;;;;;;;;5077757;28;20210;-66
2023/05/29 01:31:14;;;;;;;6.83;5.50;;;;;;;;;;5077678;28;20311;-66
2023/05/29 01:33:42;;;;;;;8.37;5.57;;;;;;;;;;5077635;28;20210;-66
2023/05/29 01:36:11;;;;;;;7.33;5.70;;;;;;;;;;5077568;28;20291;-66
2023/05/29 01:38:39;;;;;;;8.30;5.80;;;;;;;;;;5077295;28;20677;-66
2023/05/29 01:41:07;;;;;;;12.27;5.80;;;;;;;;;;5077778;28;20203;-65
2023/05/29 01:43:35;;;;;;;6.20;5.00;;;;;;;;;;5077606;28;20213;-66
2023/05/29 01:46:05;;;;;;;6.00;4.87;;;;;;;;;;5078012;28;20249;-65
2023/05/29 01:48:33;;;;;;;6.53;4.87;;;;;;;;;;5081657;28;20233;-64
2023/05/29 01:51:02;;;;;;;7.40;5.17;;;;;;;;;;5081808;28;20236;-66
2023/05/29 01:53:30;;;;;;;7.93;5.17;;;;;;;;;;5081175;28;20214;-65
2023/05/29 01:55:58;;;;;;;7.03;4.77;;;;;;;;;;5081559;28;20313;-65
2023/05/29 01:58:27;;;;;;;8.10;5.10;;;;;;;;;;5081513;28;20219;-65
2023/05/29 02:00:56;;;;;;;5.67;4.53;;;;;;;;;;5081343;28;20228;-66
2023/05/29 02:03:28;;;;;;;7.37;5.07;;;;;;;;;;5081375;28;20213;-66
2023/05/29 02:05:57;;;;;;;6.03;5.00;;;;;;;;;;5081441;28;20261;-66
2023/05/29 02:08:26;;;;;;;7.53;5.37;;;;;;;;;;5080913;28;20270;-65
2023/05/29 02:10:54;;;;;;;6.40;4.60;;;;;;;;;;5081059;28;20228;-65
2023/05/29 02:13:22;;;;;;;9.83;5.57;;;;;;;;;;5081515;28;20211;-65
2023/05/29 02:15:51;;;;;;;6.83;5.50;;;;;;;;;;5081291;28;20260;-66
2023/05/29 02:18:19;;;;;;;6.97;4.60;;;;;;;;;;5081005;28;20295;-65
2023/05/29 02:20:48;;;;;;;7.03;5.00;;;;;;;;;;5080990;28;20655;-66
2023/05/29 02:23:17;;;;;;;6.80;4.90;;;;;;;;;;5080587;28;20663;-65
2023/05/29 02:25:45;;;;;;;8.50;5.17;;;;;;;;;;5081052;28;20227;-65
2023/05/29 02:28:13;;;;;;;4.90;4.40;;;;;;;;;;5081091;28;20209;-65
2023/05/29 02:30:42;;;;;;;7.07;4.87;;;;;;;;;;5081068;28;20226;-65
2023/05/29 02:33:10;;;;;;;6.47;4.60;;;;;;;;;;5080729;28;20567;-65
2023/05/29 02:35:38;;;;;;;8.23;5.40;;;;;;;;;;5080713;28;20234;-65
2023/05/29 02:38:07;;;;;;;7.97;5.07;;;;;;;;;;5080311;28;20234;-64
2023/05/29 02:40:36;;;;;;;6.40;4.60;;;;;;;;;;5080676;28;20209;-64
2023/05/29 02:43:04;;;;;;;7.37;5.07;;;;;;;;;;5080559;28;21249;-63
2023/05/29 02:45:32;;;;;;;6.20;4.87;;;;;;;;;;5080531;28;20728;-65
2023/05/29 02:48:00;;;;;;;6.30;4.40;;;;;;;;;;5080472;28;20202;-65
2023/05/29 02:50:28;;;;;;;7.80;4.97;;;;;;;;;;5080781;28;20575;-64
2023/05/29 02:52:57;;;;;;;6.03;5.03;;;;;;;;;;5079953;28;20262;-65
2023/05/29 02:55:26;;;;;;;8.20;5.00;;;;;;;;;;5080312;28;20268;-63
2023/05/29 02:57:55;;;;;;;5.43;4.83;;;;;;;;;;5080466;28;20214;-63
2023/05/29 03:00:25;;;;;;;7.03;4.93;;;;;;;;;;5080572;28;20206;-64
2023/05/29 03:02:53;;;;;;;5.17;4.33;;;;;;;;;;5080105;28;20269;-63
2023/05/29 03:05:21;;;;;;;6.43;5.10;;;;;;;;;;5080114;28;20776;-63
2023/05/29 03:07:51;;;;;;;7.67;5.30;;;;;;;;;;5079829;28;20624;-64
2023/05/29 03:10:19;;;;;;;8.83;4.87;;;;;;;;;;5080005;28;20229;-65
2023/05/29 03:12:49;;;;;;;7.67;4.33;;;;;;;;;;5080418;28;20206;-65
2023/05/29 03:15:19;;;;;;;7.23;5.30;;;;;;;;;;5080102;28;20229;-64
2023/05/29 03:17:48;;;;;;;7.03;4.80;;;;;;;;;;5079886;28;20208;-65
2023/05/29 03:20:16;;;;;;;6.70;4.87;;;;;;;;;;5080211;28;20206;-63
2023/05/29 03:22:45;;;;;;;6.50;5.10;;;;;;;;;;5080001;28;20206;-64
2023/05/29 03:25:13;;;;;;;6.80;4.77;;;;;;;;;;5079880;28;20244;-64
2023/05/29 03:27:41;;;;;;;11.00;4.90;;;;;;;;;;5079805;28;20685;-64
2023/05/29 03:30:12;;;;;;;7.97;5.50;;;;;;;;;;5079949;28;20206;-64
2023/05/29 03:32:40;;;;;;;6.27;4.73;;;;;;;;;;5079758;28;20689;-64
2023/05/29 03:35:08;;;;;;;7.43;4.97;;;;;;;;;;5079739;28;20689;-64
2023/05/29 03:37:37;;;;;;;7.13;4.63;;;;;;;;;;5079855;28;20210;-66
2023/05/29 03:40:05;;;;;;;6.67;4.87;;;;;;;;;;5079170;28;20642;-65
2023/05/29 03:42:33;;;;;;;9.93;4.73;;;;;;;;;;5079740;28;20217;-65
2023/05/29 03:45:01;;;;;;;6.93;4.37;;;;;;;;;;5079331;28;20210;-66
2023/05/29 03:47:31;;;;;;;9.20;4.13;;;;;;;;;;5079456;28;20213;-65
2023/05/29 03:49:59;;;;;;;7.60;4.47;;;;;;;;;;5079728;28;20206;-65
2023/05/29 03:52:27;;;;;;;7.03;3.93;;;;;;;;;;5079419;28;20240;-65
2023/05/29 03:54:55;;;;;;;5.73;3.93;;;;;;;;;;5078807;28;20240;-65
2023/05/29 03:57:24;;;;;;;8.20;4.00;;;;;;;;;;5079448;28;20208;-65
2023/05/29 03:59:52;;;;;;;5.03;3.80;;;;;;;;;;5078969;28;20210;-63
2023/05/29 04:02:20;;;;;;;5.20;3.70;;;;;;;;;;5077391;28;20222;-63
2023/05/29 04:04:50;;;;;;;4.17;3.77;;;;;;;;;;5078615;28;20267;-62
2023/05/29 04:07:19;;;;;;;4.60;3.67;;;;;;;;;;5077568;28;20316;-62
2023/05/29 04:09:47;;;;;;;5.37;3.50;;;;;;;;;;5077685;28;20281;-63
2023/05/29 04:12:16;;;;;;;6.37;4.07;;;;;;;;;;5077966;28;20221;-62
2023/05/29 04:14:44;;;;;;;5.60;3.27;;;;;;;;;;5077728;28;20194;-62
2023/05/29 04:17:12;;;;;;;5.17;3.70;;;;;;;;;;5077853;28;20309;-62
2023/05/29 04:19:41;;;;;;;10.93;4.00;;;;;;;;;;5078422;28;20198;-62
2023/05/29 04:22:10;;;;;;;5.67;3.67;;;;;;;;;;5076292;28;20281;-64
2023/05/29 04:24:38;;;;;;;4.73;3.13;;;;;;;;;;5078022;28;20202;-62
2023/05/29 04:27:07;;;;;;;9.70;3.37;;;;;;;;;;5077521;28;20233;-62
2023/05/29 04:29:35;;;;;;;5.70;3.87;;;;;;;;;;5078091;28;20202;-62
2023/05/29 04:32:04;;;;;;;3.57;3.20;;;;;;;;;;5077867;28;20248;-64
2023/05/29 04:34:32;;;;;;;8.80;4.20;;;;;;;;;;5077677;28;20286;-63
2023/05/29 04:37:00;;;;;;;5.03;3.17;;;;;;;;;;5077864;28;20305;-63
2023/05/29 04:39:30;;;;;;;6.37;3.43;;;;;;;;;;5074866;28;20195;-63
2023/05/29 04:41:58;;;;;;;6.13;3.40;;;;;;;;;;5077868;28;20266;-63
2023/05/29 04:44:28;;;;;;;6.10;3.90;;;;;;;;;;5077443;28;20278;-63
2023/05/29 04:46:57;;;;;;;5.27;4.13;;;;;;;;;;5077895;28;20248;-63
2023/05/29 04:49:26;;;;;;;7.03;4.00;;;;;;;;;;5077484;28;20295;-63
2023/05/29 04:51:54;;;;;;;6.07;3.70;;;;;;;;;;5077769;28;20262;-63
2023/05/29 04:54:23;;;;;;;5.67;3.50;;;;;;;;;;5077009;28;20723;-63
2023/05/29 04:56:53;;;;;;;5.27;4.00;;;;;;;;;;5077419;28;20230;-63
2023/05/29 04:59:21;;;;;;;6.50;4.17;;;;;;;;;;5077528;28;20204;-63
2023/05/29 05:01:49;;;;;;;5.13;3.70;;;;;;;;;;5074599;28;20232;-64
2023/05/29 05:04:18;;;;;;;5.97;3.97;;;;;;;;;;5077490;28;20576;-63
2023/05/29 05:06:46;;;;;;;7.00;4.60;;;;;;;;;;5077390;28;20225;-63
2023/05/29 05:09:14;;;;;;;5.70;3.80;;;;;;;;;;5076991;28;20283;-63
2023/05/29 05:11:43;;;;;;;4.80;3.50;;;;;;;;;;5077135;28;20220;-62
2023/05/29 05:14:12;;;;;;;6.23;4.00;;;;;;;;;;5076988;28;20247;-62
2023/05/29 05:16:40;;;;;;;7.23;4.10;;;;;;;;;;5076622;28;20231;-62
2023/05/29 05:19:09;;;;;;;5.70;3.80;;;;;;;;;;5077716;28;20295;-61
2023/05/29 05:21:39;;;;;;;7.77;4.17;;;;;;;;;;5076489;28;20665;-62
2023/05/29 05:24:08;;;;;;;4.90;3.47;;;;;;;;;;5077128;28;20219;-63
2023/05/29 05:26:36;;;;;;;7.23;3.93;;;;;;;;;;5077385;28;20701;-62
2023/05/29 05:29:04;;;;;;;4.63;3.47;;;;;;;;;;5077700;28;20737;-60
2023/05/29 05:31:33;;;;;;;4.03;3.50;;;;;;;;;;5077514;28;20226;-62
2023/05/29 05:34:02;;;;;;;5.00;3.50;;;;;;;;;;5077934;28;20245;-62
2023/05/29 05:36:31;;;;;;;5.50;3.43;;;;;;;;;;5077474;28;20222;-62
2023/05/29 05:38:59;;;;;;;6.13;3.70;;;;;;;;;;5077288;28;20237;-63
2023/05/29 05:41:27;;;;;;;6.33;3.60;;;;;;;;;;5077376;28;20575;-63
2023/05/29 05:43:55;;;;;;;5.33;3.50;;;;;;;;;;5077586;28;20269;-63
2023/05/29 05:46:23;;;;;;;5.47;3.47;;;;;;;;;;5077444;28;20241;-62
2023/05/29 05:48:57;;;;;;;7.07;4.53;;;;;;;;;;5077845;28;20202;-62
2023/05/29 05:51:26;;;;;;;5.60;3.50;;;;;;;;;;5077460;28;20212;-63
2023/05/29 05:53:55;;;;;;;6.23;3.87;;;;;;;;;;5077317;28;20198;-62
2023/05/29 05:56:23;;;;;;;5.93;3.53;;;;;;;;;;5077337;28;20230;-62
2023/05/29 05:58:51;;;;;;;6.50;3.63;;;;;;;;;;5077482;28;20575;-61
2023/05/29 06:01:19;;;;;;;4.47;3.60;;;;;;;;;;5075638;28;20254;-60
2023/05/29 06:03:48;;;;;;;8.77;4.37;;;;;;;;;;5077577;28;20210;-62
2023/05/29 06:06:18;;;;;;;5.33;3.50;;;;;;;;;;5073125;28;20972;-61
2023/05/29 06:08:47;;;;;;;6.33;3.60;;;;;;;;;;5073982;28;20256;-61
2023/05/29 06:11:15;;;;;;;5.37;3.23;;;;;;;;;;5069772;28;20237;-61
2023/05/29 06:13:43;;;;;;;3.80;3.20;;;;;;;;;;5067598;28;20301;-62
2023/05/29 06:16:12;;;;;;;6.73;3.43;;;;;;;;;;5067074;28;20321;-63
2023/05/29 06:18:40;;;;;;;6.30;3.67;;;;;;;;;;5073586;28;20198;-63
2023/05/29 06:21:09;;;;;;;8.00;3.87;;;;;;;;;;5065442;28;20203;-63
2023/05/29 06:23:38;;;;;;;5.53;3.50;;;;;;;;;;5073497;28;20222;-64
2023/05/29 06:26:07;;;;;;;5.60;3.70;;;;;;;;;;5069213;28;20229;-63
2023/05/29 06:28:35;;;;;;;7.00;3.67;;;;;;;;;;5070749;28;20201;-62
2023/05/29 06:31:03;;;;;;;6.47;3.17;;;;;;;;;;5076852;28;20230;-62
2023/05/29 06:33:31;;;;;;;6.27;3.33;;;;;;;;;;5077909;28;20218;-62
2023/05/29 06:36:00;;;;;;;5.70;3.67;;;;;;;;;;5079393;28;20222;-61
2023/05/29 06:38:30;;;;;;;3.80;2.87;;;;;;;;;;5079382;28;20252;-63
2023/05/29 06:41:00;;;;;;;8.10;3.40;;;;;;;;;;5079379;28;20688;-63
2023/05/29 06:43:28;;;;;;;5.40;3.50;;;;;;;;;;5079482;28;20225;-63
2023/05/29 06:45:57;;;;;;;5.20;3.47;;;;;;;;;;5079455;28;20222;-63
2023/05/29 06:48:25;;;;;;;5.70;3.10;;;;;;;;;;5079538;28;20289;-63
2023/05/29 06:50:53;;;;;;;4.97;3.43;;;;;;;;;;5076709;28;20285;-62
2023/05/29 06:53:21;;;;;;;5.03;3.40;;;;;;;;;;5077321;28;20222;-61
2023/05/29 06:55:50;;;;;;;5.97;3.23;;;;;;;;;;5079917;28;20578;-62
2023/05/29 06:58:19;;;;;;;4.83;3.67;;;;;;;;;;5080160;28;20696;-62
2023/05/29 07:00:47;;;;;;;4.73;3.37;;;;;;;;;;5079915;28;20237;-62
2023/05/29 07:03:16;;;;;;;4.70;3.07;;;;;;;;;;5080670;28;20253;-62
2023/05/29 07:05:44;;;;;;;5.57;3.40;;;;;;;;;;5080219;28;20696;-62
2023/05/29 07:08:12;;;;;;;9.57;3.63;;;;;;;;;;5079811;28;20213;-62
2023/05/29 07:10:40;;;;;;;9.13;3.80;;;;;;;;;;5080264;28;20212;-62
2023/05/29 07:13:08;;;;;;;6.60;3.40;;;;;;;;;;5080130;28;20231;-62
2023/05/29 07:15:39;;;;;;;6.20;4.03;;;;;;;;;;5075711;28;20224;-63
2023/05/29 07:18:07;;;;;;;7.73;3.73;;;;;;;;;;5079510;28;20209;-63
2023/05/29 07:20:36;;;;;;;7.67;3.90;;;;;;;;;;5079573;28;20207;-63
2023/05/29 07:23:05;;;;;;;7.80;4.07;;;;;;;;;;5079190;28;20233;-63
2023/05/29 07:25:34;;;;;;;4.93;3.70;;;;;;;;;;5079767;28;20222;-61
2023/05/29 07:28:02;;;;;;;6.77;3.70;;;;;;;;;;5079423;28;20234;-62
2023/05/29 07:30:50;;;;;;;6.30;3.60;;;;;;;;;;5079743;28;20237;-61
2023/05/29 07:33:18;;;;;;;8.40;3.90;;;;;;;;;;5079478;28;20314;-64
2023/05/29 07:35:46;;;;;;;5.53;3.63;;;;;;;;;;5069251;28;20314;-64
2023/05/29 07:38:14;;;;;;;6.80;3.47;;;;;;;;;;5079554;28;20318;-65
2023/05/29 07:40:42;;;;;;;3.40;3.10;;;;;;;;;;5079735;28;20217;-65
2023/05/29 07:43:11;;;;;;;8.17;3.60;;;;;;;;;;5079503;28;20203;-64
2023/05/29 07:45:39;;;;;;;5.90;3.40;;;;;;;;;;5078758;28;20227;-64
2023/05/29 07:48:08;;;;;;;7.30;4.03;;;;;;;;;;5079664;28;20209;-66
2023/05/29 07:50:37;;;;;;;8.37;4.07;;;;;;;;;;5079274;28;20692;-66
2023/05/29 07:53:05;;;;;;;6.03;3.77;;;;;;;;;;5078845;28;20256;-66
2023/05/29 07:55:35;;;;;;;4.70;3.50;;;;;;;;;;5078928;28;20239;-66
2023/05/29 07:58:03;;;;;;;5.83;3.57;;;;;;;;;;5078896;28;20214;-66
2023/05/29 08:00:31;;;;;;;6.97;3.33;;;;;;;;;;5078933;28;20265;-66
2023/05/29 08:02:59;;;;;;;9.20;3.40;;;;;;;;;;5076149;28;20271;-66
2023/05/29 08:05:29;;;;;;;8.00;4.07;;;;;;;;;;5079439;28;20228;-64
2023/05/29 08:07:58;;;;;;;10.03;4.13;;;;;;;;;;5081161;28;20226;-64
2023/05/29 08:10:26;;;;;;;8.13;3.53;;;;;;;;;;5079428;28;20247;-65
2023/05/29 08:12:54;;;;;;;6.23;3.60;;;;;;;;;;5078771;28;20230;-65
2023/05/29 08:15:24;;;;;;;8.00;3.73;;;;;;;;;;5078730;28;20231;-65
2023/05/29 08:17:52;;;;;;;6.87;4.23;;;;;;;;;;5078746;28;20213;-64
2023/05/29 08:20:20;;;;;;;6.00;3.63;;;;;;;;;;5078099;28;20235;-64
2023/05/29 08:22:50;;;;;;;5.23;3.30;;;;;;;;;;5078414;28;20243;-65
2023/05/29 08:25:18;;;;;;;7.13;4.03;;;;;;;;;;5078614;28;20259;-64
2023/05/29 08:27:46;;;;;;;6.53;3.60;;;;;;;;;;5078756;28;20243;-65
2023/05/29 08:30:14;;;;;;;5.00;3.67;;;;;;;;;;5078731;28;20294;-66
2023/05/29 08:32:43;;;;;;;9.27;4.13;;;;;;;;;;5064990;28;20210;-65
2023/05/29 08:35:11;;;;;;;5.43;3.80;;;;;;;;;;5078126;28;20236;-65
2023/05/29 08:37:39;;;;;;;6.10;3.50;;;;;;;;;;5078124;28;20269;-65
2023/05/29 08:40:10;;;;;;;4.97;3.57;;;;;;;;;;5078257;28;20209;-65
2023/05/29 08:42:42;;;;;;;6.23;3.67;;;;;;;;;;5078553;28;20217;-66
2023/05/29 08:45:14;;;;;;;7.27;3.43;;;;;;;;;;5078478;28;20229;-66
2023/05/29 08:47:42;;;;;;;6.97;3.80;;;;;;;;;;5067628;28;20734;-65
2023/05/29 08:50:14;;;;;;;5.40;4.33;;;;;;;;;;5078574;28;20204;-65
2023/05/29 08:52:42;;;;;;;7.33;4.23;;;;;;;;;;5077767;28;20570;-65
2023/05/29 08:55:12;;;;;;;5.50;3.57;;;;;;;;;;5077771;28;20688;-65
2023/05/29 08:57:43;;;;;;;6.30;3.73;;;;;;;;;;5078221;28;20210;-65
2023/05/29 09:00:13;;;;;;;7.47;3.37;;;;;;;;;;5078309;28;20203;-65
2023/05/29 09:02:41;;;;;;;6.00;4.03;;;;;;;;;;5077748;28;20607;-65
2023/05/29 09:05:10;;;;;;;7.03;3.90;;;;;;;;;;5078233;28;20230;-65
2023/05/29 09:07:40;;;;;;;10.30;3.90;;;;;;;;;;5077514;28;20294;-65
2023/05/29 09:10:09;;;;;;;7.40;3.93;;;;;;;;;;5077717;28;20221;-65
2023/05/29 09:12:42;;;;;;;7.87;3.87;;;;;;;;;;5078144;28;20291;-66
2023/05/29 09:15:18;;;;;;;9.77;3.70;;;;;;;;;;5077871;28;20230;-66
2023/05/29 09:17:51;;;;;;;4.27;3.73;;;;;;;;;;5077746;28;20649;-65
2023/05/29 09:20:19;;;;;;;5.27;4.20;;;;;;;;;;5078022;28;20210;-65
2023/05/29 09:22:54;;;;;;;6.53;3.97;;;;;;;;;;5077742;28;20212;-66
2023/05/29 09:25:23;;;;;;;5.57;3.77;;;;;;;;;;5077608;28;20259;-66
2023/05/29 09:27:54;;;;;;;7.87;4.33;;;;;;;;;;5077895;28;20204;-66
2023/05/29 09:30:32;;;;;;;5.27;4.17;;;;;;;;;;5077708;28;20666;-65
2023/05/29 09:33:01;;;;;;;7.37;3.57;;;;;;;;;;5077547;28;20694;-65
2023/05/29 09:35:33;;;;;;;4.47;3.67;;;;;;;;;;5077476;28;20703;-66
2023/05/29 09:38:01;;;;;;;5.97;4.20;;;;;;;;;;5077160;28;20257;-66
2023/05/29 09:40:33;;;;;;;5.37;3.93;;;;;;;;;;5077627;28;20279;-65
2023/05/29 09:43:07;;;;;;;7.93;3.47;;;;;;;;;;5077548;28;20204;-65
2023/05/29 09:45:39;;;;;;;5.03;3.80;;;;;;;;;;5077421;28;20225;-65
2023/05/29 09:48:08;;;;;;;5.50;4.30;;;;;;;;;;5077368;28;20209;-65
2023/05/29 09:50:37;;;;;;;7.27;3.60;;;;;;;;;;5077441;28;20581;-66
2023/05/29 09:53:17;;;;;;;10.33;4.53;;;;;;;;;;5077288;28;20205;-66
2023/05/29 09:55:46;;;;;;;6.03;4.17;;;;;;;;;;5077424;28;20233;-66
2023/05/29 09:58:17;;;;;;;5.87;4.40;;;;;;;;;;5077623;28;20213;-66
2023/05/29 10:00:45;;;;;;;7.03;3.83;;;;;;;;;;5077349;28;20310;-65
2023/05/29 10:03:14;;;;;;;6.10;3.50;;;;;;;;;;5077578;28;20242;-66
2023/05/29 10:05:43;;;;;;;5.67;3.80;;;;;;;;;;5077456;28;20257;-66
2023/05/29 10:08:13;;;;;;;5.03;4.13;;;;;;;;;;5079638;28;20291;-66
2023/05/29 10:10:43;;;;;;;4.77;3.10;;;;;;;;;;5081236;28;20208;-66
2023/05/29 10:13:13;;;;;;;4.77;3.23;;;;;;;;;;5081465;28;20205;-66
2023/05/29 10:15:44;;;;;;;7.20;4.10;;;;;;;;;;5081047;28;20240;-66
2023/05/29 10:18:14;;;;;;;7.10;3.90;;;;;;;;;;5081269;28;20215;-66
2023/05/29 10:20:44;;;;;;;5.03;3.37;;;;;;;;;;5081061;28;20213;-66
2023/05/29 10:23:13;;;;;;;8.03;4.10;;;;;;;;;;5080741;28;20208;-66
2023/05/29 10:25:42;;;;;;;5.07;3.30;;;;;;;;;;5081086;28;20276;-65
2023/05/29 10:28:10;;;;;;;8.60;3.73;;;;;;;;;;5080823;28;20564;-66
2023/05/29 10:30:41;;;;;;;4.87;3.50;;;;;;;;;;5081108;28;20213;-66
2023/05/29 10:33:19;;;;;;;9.70;4.20;;;;;;;;;;5080850;28;20559;-65
2023/05/29 10:35:49;;;;;;;6.77;3.90;;;;;;;;;;5080615;28;20687;-66
2023/05/29 10:38:18;;;;;;;7.97;3.77;;;;;;;;;;5080262;28;20245;-66
2023/05/29 10:40:46;;;;;;;6.17;4.07;;;;;;;;;;5070355;28;20297;-66
2023/05/29 10:43:33;;;;;;;5.93;3.27;;;;;;;;;;5067582;28;20212;-66
2023/05/29 10:46:02;;;;;;;6.10;3.97;;;;;;;;;;5080690;28;20263;-66
2023/05/29 10:48:40;;;;;;;7.83;3.80;;;;;;;;;;5080878;28;20210;-66
2023/05/29 10:51:09;;;;;;;4.30;3.67;;;;;;;;;;5080758;28;20209;-66
2023/05/29 10:53:40;;;;;;;6.20;4.30;;;;;;;;;;5080190;28;20211;-66
2023/05/29 10:56:16;;;;;;;6.03;3.67;;;;;;;;;;5080462;28;20236;-66
2023/05/29 10:58:45;;;;;;;7.93;4.47;;;;;;;;;;5080409;28;20211;-66
2023/05/29 11:01:13;;;;;;;4.80;3.60;;;;;;;;;;5080272;28;20303;-66
2023/05/29 11:03:43;;;;;;;7.13;3.90;;;;;;;;;;5080487;28;20213;-66
2023/05/29 11:06:18;;;;;;;9.77;4.63;;;;;;;;;;5080449;28;20318;-66
2023/05/29 11:08:47;;;;;;;7.53;4.37;;;;;;;;;;5079783;28;20586;-66
2023/05/29 11:11:15;;;;;;;5.30;4.00;;;;;;;;;;5080316;28;20209;-64
2023/05/29 11:13:52;;;;;;;6.17;4.17;;;;;;;;;;5080032;28;20682;-66
2023/05/29 11:16:36;;;;;;;10.90;4.00;;;;;;;;;;5080049;28;20235;-66
2023/05/29 11:19:07;;;;;;;8.27;4.00;;;;;;;;;;5078557;28;20268;-65
2023/05/29 11:21:41;;;;;;;6.23;3.70;;;;;;;;;;5079805;28;20208;-65
2023/05/29 11:24:15;;;;;;;4.93;3.83;;;;;;;;;;5079589;28;20588;-64
2023/05/29 11:26:47;;;;;;;4.47;3.90;;;;;;;;;;5079654;28;20229;-66
2023/05/29 11:29:16;;;;;;;5.10;4.40;;;;;;;;;;5080126;28;20212;-66
2023/05/29 11:31:44;;;;;;;8.33;3.73;;;;;;;;;;5079784;28;20202;-66
2023/05/29 11:34:16;;;;;;;6.87;4.03;;;;;;;;;;5079708;28;20612;-67
2023/05/29 11:36:44;;;;;;;6.67;4.27;;;;;;;;;;5079442;28;20682;-65
2023/05/29 11:39:12;;;;;;;7.40;4.37;;;;;;;;;;5079479;28;20213;-65
2023/05/29 11:41:40;;;;;;;8.50;4.03;;;;;;;;;;5079715;28;20210;-65
2023/05/29 11:44:09;;;;;;;8.03;4.10;;;;;;;;;;5079792;28;20238;-65
2023/05/29 11:46:37;;;;;;;7.23;3.73;;;;;;;;;;5079655;28;20226;-65
2023/05/29 11:49:05;;;;;;;4.70;3.40;;;;;;;;;;5079396;28;20210;-66
2023/05/29 11:51:34;;;;;;;8.93;4.80;;;;;;;;;;5079399;28;20209;-66
2023/05/29 11:54:03;;;;;;;6.23;4.27;;;;;;;;;;5078799;28;20212;-65
2023/05/29 11:56:31;;;;;;;6.33;4.10;;;;;;;;;;5079410;28;20233;-65
2023/05/29 11:59:02;;;;;;;7.60;4.23;;;;;;;;;;5079395;28;20214;-66
2023/05/29 12:01:30;;;;;;;5.53;3.63;;;;;;;;;;5079019;28;20752;-66
2023/05/29 12:03:58;;;;;;;9.07;3.83;;;;;;;;;;5078982;28;20653;-66
2023/05/29 12:06:35;;;;;;;5.67;3.53;;;;;;;;;;5078995;28;20286;-66
2023/05/29 12:09:04;;;;;;;6.30;3.23;;;;;;;;;;5078631;28;20213;-66
2023/05/29 12:11:34;;;;;;;5.47;3.50;;;;;;;;;;5078938;28;20242;-66
2023/05/29 12:14:02;;;;;;;6.47;3.83;;;;;;;;;;5079176;28;20206;-65
2023/05/29 12:16:31;;;;;;;11.97;4.70;;;;;;;;;;5078933;28;20232;-66
2023/05/29 12:19:00;;;;;;;7.97;3.87;;;;;;;;;;5078815;28;20671;-66
2023/05/29 12:21:28;;;;;;;4.47;3.13;;;;;;;;;;5078985;28;20300;-66
2023/05/29 12:23:58;;;;;;;6.73;3.73;;;;;;;;;;5078713;28;20214;-66
2023/05/29 12:26:30;;;;;;;4.50;3.63;;;;;;;;;;5079017;28;20321;-66
2023/05/29 12:28:59;;;;;;;7.73;4.20;;;;;;;;;;5078356;28;20235;-67
2023/05/29 12:31:28;;;;;;;6.73;3.63;;;;;;;;;;5078309;28;20238;-66
2023/05/29 12:34:00;;;;;;;6.73;3.83;;;;;;;;;;5078796;28;20218;-66
2023/05/29 12:36:28;;;;;;;6.33;3.43;;;;;;;;;;5078507;28;20238;-66
2023/05/29 12:39:00;;;;;;;5.97;3.97;;;;;;;;;;5078361;28;20207;-65
2023/05/29 12:41:28;;;;;;;5.90;3.47;;;;;;;;;;5068838;28;20212;-66
2023/05/29 12:43:57;;;;;;;7.27;3.97;;;;;;;;;;5077821;28;20216;-65
2023/05/29 12:46:26;;;;;;;5.93;3.87;;;;;;;;;;5078491;28;20232;-64
2023/05/29 12:48:54;;;;;;;8.43;4.37;;;;;;;;;;5078377;28;20738;-64
2023/05/29 12:51:26;;;;;;;6.20;3.90;;;;;;;;;;5078709;28;20291;-64
2023/05/29 12:53:54;;;;;;;5.37;3.50;;;;;;;;;;5078398;28;20208;-65
2023/05/29 12:56:26;;;;;;;5.23;3.73;;;;;;;;;;5078517;28;20312;-64
2023/05/29 12:58:54;;;;;;;8.33;3.70;;;;;;;;;;5078371;28;20572;-64
2023/05/29 13:01:23;;;;;;;3.53;3.23;;;;;;;;;;5074501;28;20243;-64
2023/05/29 13:03:52;;;;;;;8.20;4.03;;;;;;;;;;5078262;28;20201;-64
2023/05/29 13:06:20;;;;;;;8.20;3.90;;;;;;;;;;5078354;28;20229;-64
2023/05/29 13:08:48;;;;;;;5.27;3.27;;;;;;;;;;5077516;28;20682;-65
2023/05/29 13:11:17;;;;;;;5.70;3.67;;;;;;;;;;5078138;28;20220;-64
2023/05/29 13:13:46;;;;;;;5.07;3.00;;;;;;;;;;5077953;28;20289;-65
2023/05/29 13:16:14;;;;;;;6.00;3.73;;;;;;;;;;5077988;28;20232;-64
2023/05/29 13:18:43;;;;;;;5.70;3.77;;;;;;;;;;5077783;28;20200;-65
2023/05/29 13:21:11;;;;;;;6.13;4.00;;;;;;;;;;5078132;28;20219;-65
2023/05/29 13:23:39;;;;;;;6.50;3.80;;;;;;;;;;5077647;28;20212;-65
2023/05/29 13:26:07;;;;;;;6.10;3.73;;;;;;;;;;5077597;28;20311;-65
2023/05/29 13:28:36;;;;;;;4.93;3.83;;;;;;;;;;5077767;28;20292;-65
2023/05/29 13:31:06;;;;;;;4.17;3.43;;;;;;;;;;5078681;28;20220;-64
2023/05/29 13:33:34;;;;;;;5.33;3.57;;;;;;;;;;5078476;28;20216;-65
2023/05/29 13:36:02;;;;;;;7.13;3.73;;;;;;;;;;5078515;28;20675;-64
2023/05/29 13:38:30;;;;;;;8.53;3.60;;;;;;;;;;5077831;28;20262;-65
2023/05/29 13:40:58;;;;;;;8.50;3.43;;;;;;;;;;5077535;28;20292;-65
2023/05/29 13:43:27;;;;;;;5.07;3.40;;;;;;;;;;5077217;28;20206;-66
2023/05/29 13:46:12;;;;;;;5.40;3.77;;;;;;;;;;5077476;28;20706;-66
2023/05/29 13:48:40;;;;;;;6.33;3.60;;;;;;;;;;5077581;28;20288;-66
2023/05/29 13:51:08;;;;;;;6.00;3.50;;;;;;;;;;5077459;28;20213;-66
2023/05/29 13:53:36;;;;;;;5.13;3.17;;;;;;;;;;5077433;28;20217;-66
2023/05/29 13:56:05;;;;;;;5.57;3.00;;;;;;;;;;5077248;28;20226;-66
2023/05/29 13:58:33;;;;;;;6.10;3.20;;;;;;;;;;5077423;28;20233;-66
2023/05/29 14:01:01;;;;;;;4.40;3.70;;;;;;;;;;5077224;28;20668;-66
2023/05/29 14:03:31;;;;;;;6.17;3.80;;;;;;;;;;5077614;28;20284;-66
2023/05/29 14:06:00;;;;;;;7.30;3.90;;;;;;;;;;5077314;28;20223;-66
2023/05/29 14:08:28;;;;;;;4.07;3.30;;;;;;;;;;5077368;28;20209;-66
2023/05/29 14:10:56;;;;;;;8.80;3.63;;;;;;;;;;5077526;28;20277;-66
2023/05/29 14:13:24;;;;;;;4.80;3.23;;;;;;;;;;5077266;28;20211;-66
2023/05/29 14:15:54;;;;;;;5.83;3.90;;;;;;;;;;5077113;28;20222;-66
2023/05/29 14:18:23;;;;;;;5.47;3.63;;;;;;;;;;5077376;28;20204;-66
2023/05/29 14:20:53;;;;;;;4.57;3.47;;;;;;;;;;5071399;28;20201;-69
2023/05/29 14:23:21;;;;;;;6.97;3.93;;;;;;;;;;5076772;28;20240;-69
2023/05/29 14:25:51;;;;;;;7.27;3.77;;;;;;;;;;5077333;28;20230;-69
2023/05/29 14:28:19;;;;;;;5.97;3.73;;;;;;;;;;5077013;28;20208;-68
2023/05/29 14:30:47;;;;;;;6.50;4.03;;;;;;;;;;5077074;28;20573;-68
2023/05/29 14:33:15;;;;;;;8.30;4.37;;;;;;;;;;5073795;28;20203;-68
2023/05/29 14:35:43;;;;;;;4.03;3.13;;;;;;;;;;5071937;28;20722;-69
2023/05/29 14:38:13;;;;;;;7.33;3.67;;;;;;;;;;5076626;28;20284;-66
2023/05/29 14:40:41;;;;;;;5.80;4.00;;;;;;;;;;5076953;28;20218;-64
2023/05/29 14:43:11;;;;;;;9.57;4.27;;;;;;;;;;5076952;28;20729;-66
2023/05/29 14:45:39;;;;;;;4.47;3.53;;;;;;;;;;5077240;28;20236;-65
2023/05/29 14:48:07;;;;;;;4.13;3.67;;;;;;;;;;5077119;28;20206;-65
2023/05/29 14:50:35;;;;;;;6.53;4.20;;;;;;;;;;5077136;28;20243;-65
2023/05/29 14:53:03;;;;;;;4.47;3.83;;;;;;;;;;5076989;28;20670;-64
2023/05/29 14:55:37;;;;;;;6.40;4.40;;;;;;;;;;5080252;28;20226;-64